sensor_id;sensor_type;location;lat;lon;timestamp;P1;P2;P0
26185;PMS7003;20067;48.764;9.176;2023-06-14T00:00:47;19.75;16.00;8.00
26185;PMS7003;20067;48.764;9.176;2023-06-14T00:03:13;17.00;17.00;7.75
26185;PMS7003;20067;48.764;9.176;2023-06-14T00:05:42;16.00;15.00;8.00
26185;PMS7003;20067;48.764;9.176;2023-06-14T00:08:09;16.50;14.75;8.75
26185;PMS7003;20067;48.764;9.176;2023-06-14T00:10:35;15.00;13.25;7.75
26185;PMS7003;20067;48.764;9.176;2023-06-14T00:13:02;16.75;16.75;9.50
26185;PMS7003;20067;48.764;9.176;2023-06-14T00:15:30;17.00;15.75;9.50
26185;PMS7003;20067;48.764;9.176;2023-06-14T00:17:56;18.00;16.50;9.00
26185;PMS7003;20067;48.764;9.176;2023-06-14T00:20:25;17.25;17.25;10.25
26185;PMS7003;20067;48.764;9.176;2023-06-14T00:22:51;17.50;15.25;10.25
26185;PMS7003;20067;48.764;9.176;2023-06-14T00:25:17;14.75;14.75;7.00
26185;PMS7003;20067;48.764;9.176;2023-06-14T00:27:43;19.50;16.00;9.00
26185;PMS7003;20067;48.764;9.176;2023-06-14T00:30:08;17.75;13.75;8.00
26185;PMS7003;20067;48.764;9.176;2023-06-14T00:32:34;19.50;15.00;9.50
26185;PMS7003;20067;48.764;9.176;2023-06-14T00:35:00;16.50;15.75;8.00
26185;PMS7003;20067;48.764;9.176;2023-06-14T00:37:26;17.75;17.75;10.00
26185;PMS7003;20067;48.764;9.176;2023-06-14T00:39:51;16.00;16.00;8.75
26185;PMS7003;20067;48.764;9.176;2023-06-14T00:42:24;16.25;14.50;10.25
26185;PMS7003;20067;48.764;9.176;2023-06-14T00:44:53;15.50;13.50;7.75
26185;PMS7003;20067;48.764;9.176;2023-06-14T00:47:19;15.00;13.50;9.25
26185;PMS7003;20067;48.764;9.176;2023-06-14T00:49:46;16.50;13.00;8.00
26185;PMS7003;20067;48.764;9.176;2023-06-14T00:52:12;16.75;16.00;10.00
26185;PMS7003;20067;48.764;9.176;2023-06-14T00:54:40;17.75;16.00;8.75
26185;PMS7003;20067;48.764;9.176;2023-06-14T00:57:09;17.25;17.25;10.50
26185;PMS7003;20067;48.764;9.176;2023-06-14T00:59:53;14.25;13.25;8.00
26185;PMS7003;20067;48.764;9.176;2023-06-14T01:02:20;16.50;12.75;7.25
26185;PMS7003;20067;48.764;9.176;2023-06-14T01:04:47;16.50;16.00;10.00
26185;PMS7003;20067;48.764;9.176;2023-06-14T01:15:27;17.00;15.50;8.25
26185;PMS7003;20067;48.764;9.176;2023-06-14T01:17:56;16.25;16.00;8.00
26185;PMS7003;20067;48.764;9.176;2023-06-14T01:20:28;16.50;14.50;8.00
26185;PMS7003;20067;48.764;9.176;2023-06-14T01:22:54;14.00;14.00;7.50
26185;PMS7003;20067;48.764;9.176;2023-06-14T01:25:20;16.00;14.75;8.75
26185;PMS7003;20067;48.764;9.176;2023-06-14T01:27:51;16.00;16.00;10.00
26185;PMS7003;20067;48.764;9.176;2023-06-14T01:30:21;17.00;15.50;10.00
26185;PMS7003;20067;48.764;9.176;2023-06-14T01:32:50;15.25;15.25;9.25
26185;PMS7003;20067;48.764;9.176;2023-06-14T01:35:18;16.25;15.50;9.75
26185;PMS7003;20067;48.764;9.176;2023-06-14T01:37:44;15.00;13.50;10.00
26185;PMS7003;20067;48.764;9.176;2023-06-14T01:40:13;14.25;14.00;8.00
26185;PMS7003;20067;48.764;9.176;2023-06-14T01:42:40;14.75;12.00;8.00
26185;PMS7003;20067;48.764;9.176;2023-06-14T01:45:07;15.50;15.25;9.75
26185;PMS7003;20067;48.764;9.176;2023-06-14T01:47:35;15.00;15.00;9.75
26185;PMS7003;20067;48.764;9.176;2023-06-14T01:50:05;16.00;13.25;8.75
26185;PMS7003;20067;48.764;9.176;2023-06-14T01:52:30;20.50;16.50;9.75
26185;PMS7003;20067;48.764;9.176;2023-06-14T01:54:56;15.50;12.00;8.75
26185;PMS7003;20067;48.764;9.176;2023-06-14T01:57:25;18.50;15.50;10.00
26185;PMS7003;20067;48.764;9.176;2023-06-14T02:00:05;15.50;14.75;9.25
26185;PMS7003;20067;48.764;9.176;2023-06-14T02:02:37;15.75;14.75;9.25
26185;PMS7003;20067;48.764;9.176;2023-06-14T02:05:03;15.50;15.00;9.00
26185;PMS7003;20067;48.764;9.176;2023-06-14T02:07:29;16.00;15.00;9.75
26185;PMS7003;20067;48.764;9.176;2023-06-14T02:09:55;18.75;18.00;10.75
26185;PMS7003;20067;48.764;9.176;2023-06-14T02:12:20;19.50;18.00;10.25
26185;PMS7003;20067;48.764;9.176;2023-06-14T02:14:46;16.00;16.00;8.00
26185;PMS7003;20067;48.764;9.176;2023-06-14T02:17:11;18.00;14.25;9.00
26185;PMS7003;20067;48.764;9.176;2023-06-14T02:19:37;14.00;13.00;7.00
26185;PMS7003;20067;48.764;9.176;2023-06-14T02:22:03;15.00;14.75;9.00
26185;PMS7003;20067;48.764;9.176;2023-06-14T02:24:29;14.75;14.00;9.00
26185;PMS7003;20067;48.764;9.176;2023-06-14T02:26:55;19.25;14.50;9.25
26185;PMS7003;20067;48.764;9.176;2023-06-14T02:29:20;14.50;14.50;9.00
26185;PMS7003;20067;48.764;9.176;2023-06-14T02:31:46;15.00;14.50;7.50
26185;PMS7003;20067;48.764;9.176;2023-06-14T02:34:13;15.00;14.25;9.25
26185;PMS7003;20067;48.764;9.176;2023-06-14T02:36:39;17.50;15.75;10.50
26185;PMS7003;20067;48.764;9.176;2023-06-14T02:39:06;14.25;12.75;7.00
26185;PMS7003;20067;48.764;9.176;2023-06-14T02:41:34;15.25;14.25;10.00
26185;PMS7003;20067;48.764;9.176;2023-06-14T02:44:00;15.50;15.50;9.25
26185;PMS7003;20067;48.764;9.176;2023-06-14T02:46:25;19.00;16.00;10.00
26185;PMS7003;20067;48.764;9.176;2023-06-14T02:48:51;18.00;16.00;9.00
26185;PMS7003;20067;48.764;9.176;2023-06-14T02:51:16;17.00;17.00;10.00
26185;PMS7003;20067;48.764;9.176;2023-06-14T02:53:42;16.00;14.75;10.00
26185;PMS7003;20067;48.764;9.176;2023-06-14T02:56:08;19.00;17.25;11.25
26185;PMS7003;20067;48.764;9.176;2023-06-14T02:58:36;15.50;14.75;10.00
26185;PMS7003;20067;48.764;9.176;2023-06-14T03:01:01;20.75;19.00;10.75
26185;PMS7003;20067;48.764;9.176;2023-06-14T03:03:29;14.75;13.75;9.00
26185;PMS7003;20067;48.764;9.176;2023-06-14T03:05:55;17.00;16.00;10.00
26185;PMS7003;20067;48.764;9.176;2023-06-14T03:08:21;16.00;15.50;10.75
26185;PMS7003;20067;48.764;9.176;2023-06-14T03:10:52;18.25;16.25;9.00
26185;PMS7003;20067;48.764;9.176;2023-06-14T03:13:18;17.75;14.50;9.25
26185;PMS7003;20067;48.764;9.176;2023-06-14T03:15:47;17.00;17.00;10.00
26185;PMS7003;20067;48.764;9.176;2023-06-14T03:18:15;15.25;15.25;9.00
26185;PMS7003;20067;48.764;9.176;2023-06-14T03:20:41;17.75;15.50;9.00
26185;PMS7003;20067;48.764;9.176;2023-06-14T03:23:10;18.50;18.00;10.00
26185;PMS7003;20067;48.764;9.176;2023-06-14T03:25:36;17.25;17.00;10.00
26185;PMS7003;20067;48.764;9.176;2023-06-14T03:28:03;17.00;14.00;9.00
26185;PMS7003;20067;48.764;9.176;2023-06-14T03:30:30;20.50;16.75;10.00
26185;PMS7003;20067;48.764;9.176;2023-06-14T03:32:57;18.00;15.25;9.00
26185;PMS7003;20067;48.764;9.176;2023-06-14T03:35:23;16.25;16.25;10.00
26185;PMS7003;20067;48.764;9.176;2023-06-14T03:37:48;17.25;17.00;10.00
26185;PMS7003;20067;48.764;9.176;2023-06-14T03:40:15;17.75;16.25;9.50
26185;PMS7003;20067;48.764;9.176;2023-06-14T03:42:43;18.00;17.50;10.00
26185;PMS7003;20067;48.764;9.176;2023-06-14T03:45:09;17.25;16.75;9.50
26185;PMS7003;20067;48.764;9.176;2023-06-14T03:47:35;15.00;15.00;9.50
26185;PMS7003;20067;48.764;9.176;2023-06-14T03:50:01;13.75;13.75;9.00
26185;PMS7003;20067;48.764;9.176;2023-06-14T03:52:27;17.00;15.00;10.00
26185;PMS7003;20067;48.764;9.176;2023-06-14T03:54:53;18.00;17.00;10.00
26185;PMS7003;20067;48.764;9.176;2023-06-14T03:57:19;14.25;13.75;9.50
26185;PMS7003;20067;48.764;9.176;2023-06-14T03:59:45;13.00;13.00;7.00
26185;PMS7003;20067;48.764;9.176;2023-06-14T04:02:12;19.75;16.75;10.00
26185;PMS7003;20067;48.764;9.176;2023-06-14T04:04:40;14.50;14.50;10.00
26185;PMS7003;20067;48.764;9.176;2023-06-14T04:07:09;16.00;15.50;9.50
26185;PMS7003;20067;48.764;9.176;2023-06-14T04:09:36;19.75;17.75;11.25
26185;PMS7003;20067;48.764;9.176;2023-06-14T04:12:02;21.00;18.25;11.00
26185;PMS7003;20067;48.764;9.176;2023-06-14T04:14:29;18.25;17.50;10.75
26185;PMS7003;20067;48.764;9.176;2023-06-14T04:16:55;18.25;17.25;11.00
26185;PMS7003;20067;48.764;9.176;2023-06-14T04:19:21;17.50;17.00;9.00
26185;PMS7003;20067;48.764;9.176;2023-06-14T04:21:47;21.75;18.25;10.25
26185;PMS7003;20067;48.764;9.176;2023-06-14T04:24:13;20.00;17.00;10.00
26185;PMS7003;20067;48.764;9.176;2023-06-14T04:26:48;15.50;14.75;9.00
26185;PMS7003;20067;48.764;9.176;2023-06-14T04:29:14;17.00;17.00;10.50
26185;PMS7003;20067;48.764;9.176;2023-06-14T04:31:41;16.25;16.00;9.50
26185;PMS7003;20067;48.764;9.176;2023-06-14T04:34:10;15.50;15.50;10.00
26185;PMS7003;20067;48.764;9.176;2023-06-14T04:36:41;17.25;16.75;11.00
26185;PMS7003;20067;48.764;9.176;2023-06-14T04:39:13;19.75;17.75;12.00
26185;PMS7003;20067;48.764;9.176;2023-06-14T04:41:48;20.75;19.25;9.75
26185;PMS7003;20067;48.764;9.176;2023-06-14T04:44:18;15.25;14.75;10.00
26185;PMS7003;20067;48.764;9.176;2023-06-14T04:46:45;18.75;17.75;9.00
26185;PMS7003;20067;48.764;9.176;2023-06-14T04:49:20;18.00;17.25;10.50
26185;PMS7003;20067;48.764;9.176;2023-06-14T04:54:22;18.25;16.25;10.00
26185;PMS7003;20067;48.764;9.176;2023-06-14T04:56:50;19.00;19.00;11.00
26185;PMS7003;20067;48.764;9.176;2023-06-14T04:59:18;18.75;16.25;10.00
26185;PMS7003;20067;48.764;9.176;2023-06-14T05:01:44;19.00;19.00;11.00
26185;PMS7003;20067;48.764;9.176;2023-06-14T05:04:13;18.75;18.00;11.00
26185;PMS7003;20067;48.764;9.176;2023-06-14T05:06:40;19.50;18.00;10.00
26185;PMS7003;20067;48.764;9.176;2023-06-14T05:09:07;19.75;19.00;11.00
26185;PMS7003;20067;48.764;9.176;2023-06-14T05:11:32;19.00;19.00;13.00
26185;PMS7003;20067;48.764;9.176;2023-06-14T05:13:58;18.00;15.00;10.25
26185;PMS7003;20067;48.764;9.176;2023-06-14T05:16:23;18.25;18.00;9.50
26185;PMS7003;20067;48.764;9.176;2023-06-14T05:18:50;20.50;18.50;10.50
26185;PMS7003;20067;48.764;9.176;2023-06-14T05:21:17;14.75;14.75;8.50
26185;PMS7003;20067;48.764;9.176;2023-06-14T05:23:43;19.25;19.25;12.00
26185;PMS7003;20067;48.764;9.176;2023-06-14T05:26:10;20.25;17.50;10.75
26185;PMS7003;20067;48.764;9.176;2023-06-14T05:28:36;20.50;19.25;12.50
26185;PMS7003;20067;48.764;9.176;2023-06-14T05:31:01;18.75;17.75;10.00
26185;PMS7003;20067;48.764;9.176;2023-06-14T05:33:27;23.50;21.00;12.50
26185;PMS7003;20067;48.764;9.176;2023-06-14T05:35:53;24.25;20.25;11.75
26185;PMS7003;20067;48.764;9.176;2023-06-14T05:38:20;21.25;18.75;10.50
26185;PMS7003;20067;48.764;9.176;2023-06-14T05:40:46;20.00;18.75;11.00
26185;PMS7003;20067;48.764;9.176;2023-06-14T05:43:12;19.75;17.25;11.00
26185;PMS7003;20067;48.764;9.176;2023-06-14T05:45:38;21.25;19.50;11.25
26185;PMS7003;20067;48.764;9.176;2023-06-14T05:48:04;23.75;19.50;12.00
26185;PMS7003;20067;48.764;9.176;2023-06-14T05:50:30;18.50;18.00;11.00
26185;PMS7003;20067;48.764;9.176;2023-06-14T05:52:56;19.00;17.75;10.50
26185;PMS7003;20067;48.764;9.176;2023-06-14T05:55:22;20.00;16.50;10.00
26185;PMS7003;20067;48.764;9.176;2023-06-14T05:57:47;19.25;16.25;11.00
26185;PMS7003;20067;48.764;9.176;2023-06-14T06:00:13;17.25;15.75;10.50
26185;PMS7003;20067;48.764;9.176;2023-06-14T06:02:43;19.75;17.25;12.00
26185;PMS7003;20067;48.764;9.176;2023-06-14T06:05:10;22.00;18.50;11.50
26185;PMS7003;20067;48.764;9.176;2023-06-14T06:07:37;20.75;20.75;11.50
26185;PMS7003;20067;48.764;9.176;2023-06-14T06:10:03;19.75;19.25;11.00
26185;PMS7003;20067;48.764;9.176;2023-06-14T06:12:30;21.75;19.50;14.00
26185;PMS7003;20067;48.764;9.176;2023-06-14T06:14:56;22.00;18.00;11.25
26185;PMS7003;20067;48.764;9.176;2023-06-14T06:17:21;20.50;16.00;10.25
26185;PMS7003;20067;48.764;9.176;2023-06-14T06:19:47;22.50;16.25;11.25
26185;PMS7003;20067;48.764;9.176;2023-06-14T06:22:12;16.50;16.50;10.00
26185;PMS7003;20067;48.764;9.176;2023-06-14T06:24:38;17.00;16.25;11.00
26185;PMS7003;20067;48.764;9.176;2023-06-14T06:27:04;20.25;17.75;12.00
26185;PMS7003;20067;48.764;9.176;2023-06-14T06:29:30;20.00;16.00;10.50
26185;PMS7003;20067;48.764;9.176;2023-06-14T06:31:56;19.75;18.00;12.00
26185;PMS7003;20067;48.764;9.176;2023-06-14T06:34:21;18.25;17.00;12.00
26185;PMS7003;20067;48.764;9.176;2023-06-14T06:36:47;20.50;19.00;12.75
26185;PMS7003;20067;48.764;9.176;2023-06-14T06:39:13;19.00;17.25;10.25
26185;PMS7003;20067;48.764;9.176;2023-06-14T06:41:40;16.50;15.25;9.50
26185;PMS7003;20067;48.764;9.176;2023-06-14T06:44:06;19.50;17.50;11.00
26185;PMS7003;20067;48.764;9.176;2023-06-14T06:46:32;21.00;18.50;11.00
26185;PMS7003;20067;48.764;9.176;2023-06-14T06:48:58;22.50;22.50;13.75
26185;PMS7003;20067;48.764;9.176;2023-06-14T06:51:25;20.25;20.25;12.50
26185;PMS7003;20067;48.764;9.176;2023-06-14T06:53:54;20.00;18.75;12.00
26185;PMS7003;20067;48.764;9.176;2023-06-14T06:56:20;17.25;16.75;11.00
26185;PMS7003;20067;48.764;9.176;2023-06-14T06:58:48;21.50;21.25;13.00
26185;PMS7003;20067;48.764;9.176;2023-06-14T07:01:14;23.00;17.00;11.75
26185;PMS7003;20067;48.764;9.176;2023-06-14T07:03:40;22.25;21.00;13.00
26185;PMS7003;20067;48.764;9.176;2023-06-14T07:06:06;21.50;17.50;11.00
26185;PMS7003;20067;48.764;9.176;2023-06-14T07:08:32;18.75;18.00;12.00
26185;PMS7003;20067;48.764;9.176;2023-06-14T07:10:57;18.00;17.00;11.00
26185;PMS7003;20067;48.764;9.176;2023-06-14T07:13:23;17.00;17.00;11.00
26185;PMS7003;20067;48.764;9.176;2023-06-14T07:15:48;15.50;14.00;8.75
26185;PMS7003;20067;48.764;9.176;2023-06-14T07:18:14;17.75;17.75;11.25
26185;PMS7003;20067;48.764;9.176;2023-06-14T07:20:40;17.50;17.00;10.75
26185;PMS7003;20067;48.764;9.176;2023-06-14T07:23:08;21.75;19.50;12.50
26185;PMS7003;20067;48.764;9.176;2023-06-14T07:25:33;24.00;21.00;12.00
26185;PMS7003;20067;48.764;9.176;2023-06-14T07:27:59;20.00;18.00;12.00
26185;PMS7003;20067;48.764;9.176;2023-06-14T07:30:25;17.50;17.50;11.00
26185;PMS7003;20067;48.764;9.176;2023-06-14T07:32:52;17.75;17.00;11.00
26185;PMS7003;20067;48.764;9.176;2023-06-14T07:35:18;19.50;19.00;11.25
26185;PMS7003;20067;48.764;9.176;2023-06-14T07:37:44;16.75;16.00;10.75
26185;PMS7003;20067;48.764;9.176;2023-06-14T07:40:11;18.25;18.00;11.00
26185;PMS7003;20067;48.764;9.176;2023-06-14T07:42:38;17.50;17.50;12.00
26185;PMS7003;20067;48.764;9.176;2023-06-14T07:45:03;18.50;18.00;12.75
26185;PMS7003;20067;48.764;9.176;2023-06-14T07:47:30;19.75;17.50;12.75
26185;PMS7003;20067;48.764;9.176;2023-06-14T07:49:56;22.25;19.00;12.00
26185;PMS7003;20067;48.764;9.176;2023-06-14T07:52:21;17.00;14.75;9.75
26185;PMS7003;20067;48.764;9.176;2023-06-14T07:54:47;18.25;18.25;10.75
26185;PMS7003;20067;48.764;9.176;2023-06-14T07:57:12;22.00;20.00;12.00
26185;PMS7003;20067;48.764;9.176;2023-06-14T07:59:38;18.50;17.75;12.00
26185;PMS7003;20067;48.764;9.176;2023-06-14T08:02:04;17.25;16.50;9.50
26185;PMS7003;20067;48.764;9.176;2023-06-14T08:04:29;23.00;19.50;13.50
26185;PMS7003;20067;48.764;9.176;2023-06-14T08:06:56;20.25;18.00;12.00
26185;PMS7003;20067;48.764;9.176;2023-06-14T08:09:22;16.50;15.75;10.75
26185;PMS7003;20067;48.764;9.176;2023-06-14T08:11:49;16.00;16.00;10.00
26185;PMS7003;20067;48.764;9.176;2023-06-14T08:14:15;21.25;21.25;13.75
26185;PMS7003;20067;48.764;9.176;2023-06-14T08:16:40;18.25;17.25;11.00
26185;PMS7003;20067;48.764;9.176;2023-06-14T08:19:06;19.50;19.25;12.00
26185;PMS7003;20067;48.764;9.176;2023-06-14T08:21:32;19.25;19.25;11.75
26185;PMS7003;20067;48.764;9.176;2023-06-14T08:23:58;18.50;17.00;12.00
26185;PMS7003;20067;48.764;9.176;2023-06-14T08:26:24;18.00;17.25;11.25
26185;PMS7003;20067;48.764;9.176;2023-06-14T08:28:54;18.75;18.75;12.00
26185;PMS7003;20067;48.764;9.176;2023-06-14T08:31:20;18.50;17.75;13.00
26185;PMS7003;20067;48.764;9.176;2023-06-14T08:33:46;18.00;18.00;10.75
26185;PMS7003;20067;48.764;9.176;2023-06-14T08:36:11;19.00;18.00;11.00
26185;PMS7003;20067;48.764;9.176;2023-06-14T08:38:37;19.00;17.75;11.75
26185;PMS7003;20067;48.764;9.176;2023-06-14T08:41:04;18.75;16.75;10.50
26185;PMS7003;20067;48.764;9.176;2023-06-14T08:43:31;19.00;16.75;11.25
26185;PMS7003;20067;48.764;9.176;2023-06-14T08:46:01;18.00;17.00;11.50
26185;PMS7003;20067;48.764;9.176;2023-06-14T08:48:29;18.25;17.25;12.00
26185;PMS7003;20067;48.764;9.176;2023-06-14T08:51:01;22.25;17.75;12.00
26185;PMS7003;20067;48.764;9.176;2023-06-14T08:53:30;18.75;17.50;11.50
26185;PMS7003;20067;48.764;9.176;2023-06-14T08:55:59;17.00;15.75;11.25
26185;PMS7003;20067;48.764;9.176;2023-06-14T08:58:27;20.50;18.00;12.50
26185;PMS7003;20067;48.764;9.176;2023-06-14T09:00:56;21.50;19.50;12.50
26185;PMS7003;20067;48.764;9.176;2023-06-14T09:03:22;17.50;17.00;11.50
26185;PMS7003;20067;48.764;9.176;2023-06-14T09:05:53;23.75;20.50;12.75
26185;PMS7003;20067;48.764;9.176;2023-06-14T09:08:19;18.25;16.25;10.00
26185;PMS7003;20067;48.764;9.176;2023-06-14T09:10:47;18.75;16.75;10.75
26185;PMS7003;20067;48.764;9.176;2023-06-14T09:13:12;16.50;16.25;9.50
26185;PMS7003;20067;48.764;9.176;2023-06-14T09:15:38;18.50;18.50;12.75
26185;PMS7003;20067;48.764;9.176;2023-06-14T09:18:04;18.00;17.50;12.00
26185;PMS7003;20067;48.764;9.176;2023-06-14T09:20:31;19.25;18.00;13.25
26185;PMS7003;20067;48.764;9.176;2023-06-14T09:22:57;21.25;17.25;11.50
26185;PMS7003;20067;48.764;9.176;2023-06-14T09:25:23;18.75;18.00;11.25
26185;PMS7003;20067;48.764;9.176;2023-06-14T09:27:51;18.25;17.50;12.00
26185;PMS7003;20067;48.764;9.176;2023-06-14T09:30:19;20.00;17.25;12.75
26185;PMS7003;20067;48.764;9.176;2023-06-14T09:32:45;17.75;17.00;10.00
26185;PMS7003;20067;48.764;9.176;2023-06-14T09:35:11;17.25;15.25;9.25
26185;PMS7003;20067;48.764;9.176;2023-06-14T09:37:37;17.00;16.25;11.50
26185;PMS7003;20067;48.764;9.176;2023-06-14T09:40:03;19.75;18.75;13.25
26185;PMS7003;20067;48.764;9.176;2023-06-14T09:42:30;16.00;16.00;12.00
26185;PMS7003;20067;48.764;9.176;2023-06-14T09:44:56;15.00;15.00;12.00
26185;PMS7003;20067;48.764;9.176;2023-06-14T09:47:25;19.50;18.50;13.00
26185;PMS7003;20067;48.764;9.176;2023-06-14T09:49:51;17.00;16.00;11.00
26185;PMS7003;20067;48.764;9.176;2023-06-14T09:52:19;19.50;18.25;12.75
26185;PMS7003;20067;48.764;9.176;2023-06-14T09:54:46;19.00;16.00;11.50
26185;PMS7003;20067;48.764;9.176;2023-06-14T09:57:14;23.00;21.00;12.25
26185;PMS7003;20067;48.764;9.176;2023-06-14T09:59:45;17.50;16.50;11.50
26185;PMS7003;20067;48.764;9.176;2023-06-14T10:02:17;19.25;18.75;13.00
26185;PMS7003;20067;48.764;9.176;2023-06-14T10:07:32;18.75;17.00;10.00
26185;PMS7003;20067;48.764;9.176;2023-06-14T10:10:05;15.75;15.75;10.00
26185;PMS7003;20067;48.764;9.176;2023-06-14T10:12:31;15.50;14.50;10.50
26185;PMS7003;20067;48.764;9.176;2023-06-14T10:14:57;17.00;16.00;10.75
26185;PMS7003;20067;48.764;9.176;2023-06-14T10:17:34;18.50;17.00;11.25
26185;PMS7003;20067;48.764;9.176;2023-06-14T10:23:00;14.75;14.50;11.00
26185;PMS7003;20067;48.764;9.176;2023-06-14T10:25:30;15.75;15.75;9.00
26185;PMS7003;20067;48.764;9.176;2023-06-14T10:30:37;20.00;18.25;11.25
26185;PMS7003;20067;48.764;9.176;2023-06-14T10:33:03;16.75;16.50;11.00
26185;PMS7003;20067;48.764;9.176;2023-06-14T10:35:33;17.25;17.00;11.25
26185;PMS7003;20067;48.764;9.176;2023-06-14T10:38:08;17.50;15.50;10.50
26185;PMS7003;20067;48.764;9.176;2023-06-14T10:40:36;19.00;16.00;9.75
26185;PMS7003;20067;48.764;9.176;2023-06-14T10:43:20;15.25;15.00;10.25
26185;PMS7003;20067;48.764;9.176;2023-06-14T10:46:29;20.00;18.50;10.50
26185;PMS7003;20067;48.764;9.176;2023-06-14T10:48:40;16.25;16.25;11.00
26185;PMS7003;20067;48.764;9.176;2023-06-14T10:51:14;18.25;18.00;12.50
26185;PMS7003;20067;48.764;9.176;2023-06-14T10:53:45;16.25;15.25;10.00
26185;PMS7003;20067;48.764;9.176;2023-06-14T10:56:24;18.50;18.00;12.00
26185;PMS7003;20067;48.764;9.176;2023-06-14T10:58:53;19.00;17.00;12.00
26185;PMS7003;20067;48.764;9.176;2023-06-14T11:01:21;15.25;14.25;10.00
26185;PMS7003;20067;48.764;9.176;2023-06-14T11:04:08;16.25;16.00;11.00
26185;PMS7003;20067;48.764;9.176;2023-06-14T11:06:53;17.25;16.50;11.50
26185;PMS7003;20067;48.764;9.176;2023-06-14T11:09:45;16.00;15.50;9.50
26185;PMS7003;20067;48.764;9.176;2023-06-14T11:12:35;15.00;14.00;9.25
26185;PMS7003;20067;48.764;9.176;2023-06-14T11:15:05;13.75;13.00;8.75
26185;PMS7003;20067;48.764;9.176;2023-06-14T11:17:32;15.25;15.25;10.50
26185;PMS7003;20067;48.764;9.176;2023-06-14T11:20:10;16.00;16.00;11.00
26185;PMS7003;20067;48.764;9.176;2023-06-14T11:22:41;15.75;14.50;10.00
26185;PMS7003;20067;48.764;9.176;2023-06-14T11:25:11;17.75;17.75;10.00
26185;PMS7003;20067;48.764;9.176;2023-06-14T11:27:37;15.75;14.50;9.00
26185;PMS7003;20067;48.764;9.176;2023-06-14T11:30:03;14.25;12.75;8.75
26185;PMS7003;20067;48.764;9.176;2023-06-14T11:32:32;14.75;13.75;9.50
26185;PMS7003;20067;48.764;9.176;2023-06-14T11:34:57;14.00;12.75;9.00
26185;PMS7003;20067;48.764;9.176;2023-06-14T11:37:25;15.50;13.00;9.00
26185;PMS7003;20067;48.764;9.176;2023-06-14T11:39:55;15.75;15.25;10.75
26185;PMS7003;20067;48.764;9.176;2023-06-14T11:42:22;17.25;14.00;10.00
26185;PMS7003;20067;48.764;9.176;2023-06-14T11:44:47;16.00;14.75;9.50
26185;PMS7003;20067;48.764;9.176;2023-06-14T11:47:14;14.50;13.75;8.75
26185;PMS7003;20067;48.764;9.176;2023-06-14T11:49:39;14.50;13.50;9.00
26185;PMS7003;20067;48.764;9.176;2023-06-14T11:52:05;13.50;12.75;8.00
26185;PMS7003;20067;48.764;9.176;2023-06-14T11:54:34;14.00;14.00;10.00
26185;PMS7003;20067;48.764;9.176;2023-06-14T11:57:00;15.00;13.50;8.75
26185;PMS7003;20067;48.764;9.176;2023-06-14T11:59:26;14.75;14.75;9.25
26185;PMS7003;20067;48.764;9.176;2023-06-14T12:01:53;14.00;13.25;9.00
26185;PMS7003;20067;48.764;9.176;2023-06-14T12:04:28;16.75;14.50;9.00
26185;PMS7003;20067;48.764;9.176;2023-06-14T12:06:54;13.75;13.75;8.75
26185;PMS7003;20067;48.764;9.176;2023-06-14T12:09:21;13.00;13.00;8.00
26185;PMS7003;20067;48.764;9.176;2023-06-14T12:11:49;14.25;14.00;8.75
26185;PMS7003;20067;48.764;9.176;2023-06-14T12:14:16;13.50;13.50;8.00
26185;PMS7003;20067;48.764;9.176;2023-06-14T12:16:41;14.50;13.00;8.00
26185;PMS7003;20067;48.764;9.176;2023-06-14T12:19:12;14.00;13.75;8.75
26185;PMS7003;20067;48.764;9.176;2023-06-14T12:21:39;15.50;12.00;8.75
26185;PMS7003;20067;48.764;9.176;2023-06-14T12:24:08;15.75;13.75;9.00
26185;PMS7003;20067;48.764;9.176;2023-06-14T12:26:40;14.00;13.75;9.00
26185;PMS7003;20067;48.764;9.176;2023-06-14T12:29:06;14.25;14.00;9.25
26185;PMS7003;20067;48.764;9.176;2023-06-14T12:31:32;13.00;12.50;8.00
26185;PMS7003;20067;48.764;9.176;2023-06-14T12:34:02;13.00;13.00;8.50
26185;PMS7003;20067;48.764;9.176;2023-06-14T12:36:28;13.25;13.00;8.00
26185;PMS7003;20067;48.764;9.176;2023-06-14T12:38:54;13.75;13.75;9.00
26185;PMS7003;20067;48.764;9.176;2023-06-14T12:41:20;13.25;13.00;8.25
26185;PMS7003;20067;48.764;9.176;2023-06-14T12:43:47;14.25;13.25;8.50
26185;PMS7003;20067;48.764;9.176;2023-06-14T12:46:13;14.00;13.00;9.00
26185;PMS7003;20067;48.764;9.176;2023-06-14T12:48:38;13.00;12.00;8.00
26185;PMS7003;20067;48.764;9.176;2023-06-14T12:51:04;12.25;12.25;9.00
26185;PMS7003;20067;48.764;9.176;2023-06-14T12:53:30;14.00;13.50;9.00
26185;PMS7003;20067;48.764;9.176;2023-06-14T12:55:55;13.00;12.50;9.25
26185;PMS7003;20067;48.764;9.176;2023-06-14T12:58:21;13.25;12.25;8.00
26185;PMS7003;20067;48.764;9.176;2023-06-14T13:00:48;14.50;14.50;10.50
26185;PMS7003;20067;48.764;9.176;2023-06-14T13:03:14;14.50;13.00;7.50
26185;PMS7003;20067;48.764;9.176;2023-06-14T13:05:40;13.25;13.00;8.25
26185;PMS7003;20067;48.764;9.176;2023-06-14T13:08:07;13.75;13.75;8.50
26185;PMS7003;20067;48.764;9.176;2023-06-14T13:10:33;14.25;14.25;9.75
26185;PMS7003;20067;48.764;9.176;2023-06-14T13:12:59;15.00;14.25;10.00
26185;PMS7003;20067;48.764;9.176;2023-06-14T13:15:25;13.50;13.00;8.00
26185;PMS7003;20067;48.764;9.176;2023-06-14T13:17:52;14.00;13.25;9.00
26185;PMS7003;20067;48.764;9.176;2023-06-14T13:20:18;13.50;13.50;8.75
26185;PMS7003;20067;48.764;9.176;2023-06-14T13:22:43;14.50;14.25;9.50
26185;PMS7003;20067;48.764;9.176;2023-06-14T13:25:09;13.75;13.75;8.50
26185;PMS7003;20067;48.764;9.176;2023-06-14T13:27:35;14.75;14.50;9.25
26185;PMS7003;20067;48.764;9.176;2023-06-14T13:30:02;16.50;15.00;8.75
26185;PMS7003;20067;48.764;9.176;2023-06-14T13:32:30;14.75;14.75;9.00
26185;PMS7003;20067;48.764;9.176;2023-06-14T13:34:56;14.25;14.00;9.00
26185;PMS7003;20067;48.764;9.176;2023-06-14T13:37:22;14.00;12.75;8.00
26185;PMS7003;20067;48.764;9.176;2023-06-14T13:39:48;12.25;12.00;8.00
26185;PMS7003;20067;48.764;9.176;2023-06-14T13:42:14;14.75;13.00;8.00
26185;PMS7003;20067;48.764;9.176;2023-06-14T13:44:39;15.25;12.75;8.75
26185;PMS7003;20067;48.764;9.176;2023-06-14T13:47:05;15.50;14.00;8.50
26185;PMS7003;20067;48.764;9.176;2023-06-14T13:49:31;13.25;12.50;8.00
26185;PMS7003;20067;48.764;9.176;2023-06-14T13:51:57;14.75;13.50;8.00
26185;PMS7003;20067;48.764;9.176;2023-06-14T13:54:26;14.25;13.75;8.25
26185;PMS7003;20067;48.764;9.176;2023-06-14T13:56:52;15.50;14.75;10.00
26185;PMS7003;20067;48.764;9.176;2023-06-14T13:59:18;14.00;14.00;9.00
26185;PMS7003;20067;48.764;9.176;2023-06-14T14:01:44;16.00;14.00;9.00
26185;PMS7003;20067;48.764;9.176;2023-06-14T14:04:09;14.75;14.00;9.00
26185;PMS7003;20067;48.764;9.176;2023-06-14T14:06:36;15.75;13.00;8.25
26185;PMS7003;20067;48.764;9.176;2023-06-14T14:09:02;14.00;14.00;10.00
26185;PMS7003;20067;48.764;9.176;2023-06-14T14:11:27;14.25;14.00;9.00